sensor_id;sensor_type;location;lat;lon;timestamp;P1;durP1;ratioP1;P2;durP2;ratioP2
57101;SDS011;42982;54.558;18.508;2022-10-16T00:00:05;36.08;;;14.13;;
57101;SDS011;42982;54.558;18.508;2022-10-16T00:01:14;34.70;;;14.95;;
57101;SDS011;42982;54.558;18.508;2022-10-16T00:02:20;36.13;;;14.75;;
57101;SDS011;42982;54.558;18.508;2022-10-16T00:03:23;35.47;;;14.88;;
57101;SDS011;42982;54.558;18.508;2022-10-16T00:04:28;30.80;;;14.57;;
57101;SDS011;42982;54.558;18.508;2022-10-16T00:05:38;32.05;;;14.18;;
57101;SDS011;42982;54.558;18.508;2022-10-16T00:06:41;34.17;;;15.27;;
57101;SDS011;42982;54.558;18.508;2022-10-16T00:07:47;34.90;;;14.40;;
57101;SDS011;42982;54.558;18.508;2022-10-16T00:08:54;34.80;;;14.52;;
57101;SDS011;42982;54.558;18.508;2022-10-16T00:10:02;33.03;;;14.30;;
57101;SDS011;42982;54.558;18.508;2022-10-16T00:11:11;35.33;;;13.55;;
57101;SDS011;42982;54.558;18.508;2022-10-16T00:12:18;31.58;;;14.32;;
57101;SDS011;42982;54.558;18.508;2022-10-16T00:13:21;32.30;;;13.75;;
57101;SDS011;42982;54.558;18.508;2022-10-16T00:14:24;31.60;;;14.13;;
57101;SDS011;42982;54.558;18.508;2022-10-16T00:15:35;34.45;;;14.70;;
57101;SDS011;42982;54.558;18.508;2022-10-16T00:16:40;33.38;;;13.93;;
57101;SDS011;42982;54.558;18.508;2022-10-16T00:17:45;35.28;;;14.25;;
57101;SDS011;42982;54.558;18.508;2022-10-16T00:18:52;32.30;;;14.23;;
57101;SDS011;42982;54.558;18.508;2022-10-16T00:19:54;30.10;;;13.45;;
57101;SDS011;42982;54.558;18.508;2022-10-16T00:21:21;32.38;;;13.07;;
57101;SDS011;42982;54.558;18.508;2022-10-16T00:22:46;31.48;;;14.05;;
57101;SDS011;42982;54.558;18.508;2022-10-16T00:23:52;34.22;;;14.05;;
57101;SDS011;42982;54.558;18.508;2022-10-16T00:25:10;34.40;;;14.30;;
57101;SDS011;42982;54.558;18.508;2022-10-16T00:26:13;32.28;;;14.10;;
57101;SDS011;42982;54.558;18.508;2022-10-16T00:27:17;31.17;;;13.55;;
57101;SDS011;42982;54.558;18.508;2022-10-16T00:28:19;33.10;;;13.15;;
57101;SDS011;42982;54.558;18.508;2022-10-16T00:29:24;33.60;;;13.15;;
57101;SDS011;42982;54.558;18.508;2022-10-16T00:30:26;30.70;;;13.00;;
57101;SDS011;42982;54.558;18.508;2022-10-16T00:31:31;25.70;;;12.63;;
57101;SDS011;42982;54.558;18.508;2022-10-16T00:32:36;32.28;;;13.52;;
57101;SDS011;42982;54.558;18.508;2022-10-16T00:33:41;28.80;;;13.18;;
57101;SDS011;42982;54.558;18.508;2022-10-16T00:34:46;34.30;;;14.07;;
57101;SDS011;42982;54.558;18.508;2022-10-16T00:35:49;31.90;;;13.57;;
57101;SDS011;42982;54.558;18.508;2022-10-16T00:36:53;28.73;;;13.25;;
57101;SDS011;42982;54.558;18.508;2022-10-16T00:37:58;28.27;;;13.00;;
57101;SDS011;42982;54.558;18.508;2022-10-16T00:39:01;27.98;;;12.48;;
57101;SDS011;42982;54.558;18.508;2022-10-16T00:40:03;26.92;;;12.50;;
57101;SDS011;42982;54.558;18.508;2022-10-16T00:41:12;30.50;;;13.10;;
57101;SDS011;42982;54.558;18.508;2022-10-16T00:42:18;31.23;;;13.35;;
57101;SDS011;42982;54.558;18.508;2022-10-16T00:44:57;32.60;;;13.48;;
57101;SDS011;42982;54.558;18.508;2022-10-16T00:46:00;28.95;;;13.23;;
57101;SDS011;42982;54.558;18.508;2022-10-16T00:47:08;32.92;;;13.57;;
57101;SDS011;42982;54.558;18.508;2022-10-16T00:48:14;31.63;;;14.20;;
57101;SDS011;42982;54.558;18.508;2022-10-16T00:49:17;28.20;;;12.60;;
57101;SDS011;42982;54.558;18.508;2022-10-16T00:50:28;31.00;;;13.00;;
57101;SDS011;42982;54.558;18.508;2022-10-16T00:51:39;33.33;;;13.23;;
57101;SDS011;42982;54.558;18.508;2022-10-16T00:52:57;29.80;;;12.80;;
57101;SDS011;42982;54.558;18.508;2022-10-16T00:54:04;30.80;;;13.05;;
57101;SDS011;42982;54.558;18.508;2022-10-16T00:55:17;28.25;;;12.80;;
57101;SDS011;42982;54.558;18.508;2022-10-16T00:56:22;31.02;;;12.35;;
57101;SDS011;42982;54.558;18.508;2022-10-16T00:57:25;27.02;;;11.98;;
57101;SDS011;42982;54.558;18.508;2022-10-16T00:58:33;26.50;;;12.48;;
57101;SDS011;42982;54.558;18.508;2022-10-16T00:59:36;25.08;;;11.93;;
57101;SDS011;42982;54.558;18.508;2022-10-16T01:01:47;33.13;;;14.27;;
57101;SDS011;42982;54.558;18.508;2022-10-16T01:02:54;27.10;;;12.25;;
57101;SDS011;42982;54.558;18.508;2022-10-16T01:04:00;32.13;;;13.02;;
57101;SDS011;42982;54.558;18.508;2022-10-16T01:05:02;29.90;;;12.27;;
57101;SDS011;42982;54.558;18.508;2022-10-16T01:13:00;24.60;;;11.60;;
57101;SDS011;42982;54.558;18.508;2022-10-16T01:14:54;27.48;;;11.13;;
57101;SDS011;42982;54.558;18.508;2022-10-16T01:17:15;27.50;;;10.82;;
57101;SDS011;42982;54.558;18.508;2022-10-16T01:21:29;27.98;;;11.32;;
57101;SDS011;42982;54.558;18.508;2022-10-16T01:24:27;26.13;;;10.88;;
57101;SDS011;42982;54.558;18.508;2022-10-16T01:28:14;22.83;;;10.65;;
57101;SDS011;42982;54.558;18.508;2022-10-16T01:29:21;22.70;;;10.60;;
57101;SDS011;42982;54.558;18.508;2022-10-16T01:31:34;23.30;;;10.15;;
57101;SDS011;42982;54.558;18.508;2022-10-16T01:32:41;25.40;;;10.68;;
57101;SDS011;42982;54.558;18.508;2022-10-16T01:33:46;26.65;;;11.43;;
57101;SDS011;42982;54.558;18.508;2022-10-16T01:34:59;23.30;;;10.32;;
57101;SDS011;42982;54.558;18.508;2022-10-16T01:36:15;23.15;;;11.10;;
57101;SDS011;42982;54.558;18.508;2022-10-16T01:37:29;21.52;;;9.25;;
57101;SDS011;42982;54.558;18.508;2022-10-16T01:38:53;28.23;;;9.63;;
57101;SDS011;42982;54.558;18.508;2022-10-16T01:39:58;22.35;;;9.85;;
57101;SDS011;42982;54.558;18.508;2022-10-16T01:41:07;21.40;;;10.43;;
57101;SDS011;42982;54.558;18.508;2022-10-16T01:42:27;24.40;;;10.02;;
57101;SDS011;42982;54.558;18.508;2022-10-16T01:43:39;24.92;;;10.95;;
57101;SDS011;42982;54.558;18.508;2022-10-16T01:44:45;23.17;;;10.35;;
57101;SDS011;42982;54.558;18.508;2022-10-16T01:45:55;19.48;;;10.15;;
57101;SDS011;42982;54.558;18.508;2022-10-16T01:47:04;21.15;;;9.40;;
57101;SDS011;42982;54.558;18.508;2022-10-16T01:48:09;21.33;;;9.95;;
57101;SDS011;42982;54.558;18.508;2022-10-16T01:49:13;23.08;;;10.23;;
57101;SDS011;42982;54.558;18.508;2022-10-16T01:50:18;22.30;;;9.88;;
57101;SDS011;42982;54.558;18.508;2022-10-16T01:51:22;22.55;;;10.63;;
57101;SDS011;42982;54.558;18.508;2022-10-16T01:52:30;25.42;;;10.70;;
57101;SDS011;42982;54.558;18.508;2022-10-16T01:53:36;22.27;;;10.27;;
57101;SDS011;42982;54.558;18.508;2022-10-16T01:54:40;24.65;;;10.40;;
57101;SDS011;42982;54.558;18.508;2022-10-16T01:55:47;24.95;;;10.10;;
57101;SDS011;42982;54.558;18.508;2022-10-16T01:56:53;23.70;;;10.02;;
57101;SDS011;42982;54.558;18.508;2022-10-16T01:58:00;26.17;;;11.02;;
57101;SDS011;42982;54.558;18.508;2022-10-16T01:59:15;28.80;;;10.30;;
57101;SDS011;42982;54.558;18.508;2022-10-16T02:00:20;22.25;;;9.38;;
57101;SDS011;42982;54.558;18.508;2022-10-16T02:01:29;24.08;;;9.57;;
57101;SDS011;42982;54.558;18.508;2022-10-16T02:02:38;19.33;;;9.43;;
57101;SDS011;42982;54.558;18.508;2022-10-16T02:03:44;24.27;;;9.85;;
57101;SDS011;42982;54.558;18.508;2022-10-16T02:04:54;23.77;;;9.85;;
57101;SDS011;42982;54.558;18.508;2022-10-16T02:06:05;21.65;;;10.00;;
57101;SDS011;42982;54.558;18.508;2022-10-16T02:07:14;24.80;;;10.90;;
57101;SDS011;42982;54.558;18.508;2022-10-16T02:08:18;21.83;;;9.73;;
57101;SDS011;42982;54.558;18.508;2022-10-16T02:09:24;25.40;;;10.05;;
57101;SDS011;42982;54.558;18.508;2022-10-16T02:10:30;21.55;;;10.27;;
57101;SDS011;42982;54.558;18.508;2022-10-16T02:11:35;24.05;;;10.10;;
57101;SDS011;42982;54.558;18.508;2022-10-16T02:12:44;23.35;;;10.43;;
57101;SDS011;42982;54.558;18.508;2022-10-16T02:13:55;19.98;;;10.05;;
57101;SDS011;42982;54.558;18.508;2022-10-16T02:15:04;18.40;;;8.80;;
57101;SDS011;42982;54.558;18.508;2022-10-16T02:16:12;22.23;;;10.05;;
57101;SDS011;42982;54.558;18.508;2022-10-16T02:17:19;23.17;;;9.82;;
57101;SDS011;42982;54.558;18.508;2022-10-16T02:18:28;22.02;;;9.85;;
57101;SDS011;42982;54.558;18.508;2022-10-16T02:19:32;21.50;;;9.80;;
57101;SDS011;42982;54.558;18.508;2022-10-16T02:20:53;23.08;;;10.35;;
57101;SDS011;42982;54.558;18.508;2022-10-16T02:22:05;21.70;;;9.30;;
57101;SDS011;42982;54.558;18.508;2022-10-16T02:23:15;21.75;;;10.05;;
57101;SDS011;42982;54.558;18.508;2022-10-16T02:24:26;21.10;;;10.07;;
57101;SDS011;42982;54.558;18.508;2022-10-16T02:25:40;20.23;;;10.13;;
57101;SDS011;42982;54.558;18.508;2022-10-16T02:26:49;19.42;;;10.00;;
57101;SDS011;42982;54.558;18.508;2022-10-16T02:28:07;20.33;;;10.05;;
57101;SDS011;42982;54.558;18.508;2022-10-16T02:29:38;20.73;;;10.02;;
57101;SDS011;42982;54.558;18.508;2022-10-16T02:30:54;22.23;;;10.60;;
57101;SDS011;42982;54.558;18.508;2022-10-16T02:31:58;23.65;;;10.82;;
57101;SDS011;42982;54.558;18.508;2022-10-16T02:33:05;18.38;;;9.45;;
57101;SDS011;42982;54.558;18.508;2022-10-16T02:34:13;19.08;;;9.52;;
57101;SDS011;42982;54.558;18.508;2022-10-16T02:35:18;18.95;;;9.43;;
57101;SDS011;42982;54.558;18.508;2022-10-16T02:36:26;20.50;;;9.85;;
57101;SDS011;42982;54.558;18.508;2022-10-16T02:37:29;21.48;;;9.95;;
57101;SDS011;42982;54.558;18.508;2022-10-16T02:38:32;22.80;;;9.95;;
57101;SDS011;42982;54.558;18.508;2022-10-16T02:39:36;22.90;;;10.90;;
57101;SDS011;42982;54.558;18.508;2022-10-16T02:40:40;24.92;;;9.98;;
57101;SDS011;42982;54.558;18.508;2022-10-16T02:41:45;21.65;;;11.13;;
57101;SDS011;42982;54.558;18.508;2022-10-16T02:42:53;22.02;;;9.60;;
57101;SDS011;42982;54.558;18.508;2022-10-16T02:43:57;21.67;;;10.48;;
57101;SDS011;42982;54.558;18.508;2022-10-16T02:44:59;21.52;;;9.82;;
57101;SDS011;42982;54.558;18.508;2022-10-16T02:46:02;24.85;;;10.32;;
57101;SDS011;42982;54.558;18.508;2022-10-16T02:47:05;20.92;;;9.82;;
57101;SDS011;42982;54.558;18.508;2022-10-16T02:48:08;22.33;;;10.38;;
57101;SDS011;42982;54.558;18.508;2022-10-16T02:49:11;22.02;;;10.02;;
57101;SDS011;42982;54.558;18.508;2022-10-16T02:50:15;24.55;;;9.48;;
57101;SDS011;42982;54.558;18.508;2022-10-16T02:51:24;21.70;;;10.30;;
57101;SDS011;42982;54.558;18.508;2022-10-16T02:52:26;19.10;;;9.48;;
57101;SDS011;42982;54.558;18.508;2022-10-16T02:53:30;20.23;;;9.77;;
57101;SDS011;42982;54.558;18.508;2022-10-16T02:54:36;21.55;;;10.25;;
57101;SDS011;42982;54.558;18.508;2022-10-16T02:55:44;20.27;;;10.00;;
57101;SDS011;42982;54.558;18.508;2022-10-16T02:56:49;19.83;;;8.85;;
57101;SDS011;42982;54.558;18.508;2022-10-16T02:57:51;17.48;;;9.27;;
57101;SDS011;42982;54.558;18.508;2022-10-16T02:58:57;20.33;;;9.85;;
57101;SDS011;42982;54.558;18.508;2022-10-16T03:00:03;23.20;;;9.82;;
57101;SDS011;42982;54.558;18.508;2022-10-16T03:01:06;20.55;;;10.07;;
57101;SDS011;42982;54.558;18.508;2022-10-16T03:02:11;17.15;;;9.18;;
57101;SDS011;42982;54.558;18.508;2022-10-16T03:03:17;20.92;;;9.82;;
57101;SDS011;42982;54.558;18.508;2022-10-16T03:04:20;20.42;;;9.85;;
57101;SDS011;42982;54.558;18.508;2022-10-16T03:05:25;17.33;;;9.75;;
57101;SDS011;42982;54.558;18.508;2022-10-16T03:06:34;19.27;;;9.98;;
57101;SDS011;42982;54.558;18.508;2022-10-16T03:07:39;26.30;;;9.93;;
57101;SDS011;42982;54.558;18.508;2022-10-16T03:08:41;21.85;;;9.63;;
57101;SDS011;42982;54.558;18.508;2022-10-16T03:09:46;20.33;;;9.38;;
57101;SDS011;42982;54.558;18.508;2022-10-16T03:10:49;18.58;;;9.48;;
57101;SDS011;42982;54.558;18.508;2022-10-16T03:11:57;18.90;;;10.13;;
57101;SDS011;42982;54.558;18.508;2022-10-16T03:13:00;20.52;;;10.68;;
57101;SDS011;42982;54.558;18.508;2022-10-16T03:14:08;21.38;;;10.00;;
57101;SDS011;42982;54.558;18.508;2022-10-16T03:15:14;24.02;;;10.07;;
57101;SDS011;42982;54.558;18.508;2022-10-16T03:16:16;20.10;;;9.23;;
57101;SDS011;42982;54.558;18.508;2022-10-16T03:17:24;18.10;;;9.25;;
57101;SDS011;42982;54.558;18.508;2022-10-16T03:18:27;19.17;;;9.07;;
57101;SDS011;42982;54.558;18.508;2022-10-16T03:19:32;20.17;;;9.93;;
57101;SDS011;42982;54.558;18.508;2022-10-16T03:20:42;18.00;;;9.07;;
57101;SDS011;42982;54.558;18.508;2022-10-16T03:21:49;18.15;;;9.88;;
57101;SDS011;42982;54.558;18.508;2022-10-16T03:22:52;18.88;;;9.85;;
57101;SDS011;42982;54.558;18.508;2022-10-16T03:23:55;19.58;;;10.25;;
57101;SDS011;42982;54.558;18.508;2022-10-16T03:24:57;16.83;;;9.30;;
57101;SDS011;42982;54.558;18.508;2022-10-16T03:26:03;17.52;;;10.02;;
57101;SDS011;42982;54.558;18.508;2022-10-16T03:27:05;18.58;;;9.40;;
57101;SDS011;42982;54.558;18.508;2022-10-16T03:28:08;18.05;;;9.80;;
57101;SDS011;42982;54.558;18.508;2022-10-16T03:29:13;19.67;;;10.05;;
57101;SDS011;42982;54.558;18.508;2022-10-16T03:30:16;19.80;;;10.27;;
57101;SDS011;42982;54.558;18.508;2022-10-16T03:31:23;24.63;;;10.75;;
57101;SDS011;42982;54.558;18.508;2022-10-16T03:32:27;24.33;;;11.45;;
57101;SDS011;42982;54.558;18.508;2022-10-16T03:33:33;22.15;;;9.88;;
57101;SDS011;42982;54.558;18.508;2022-10-16T03:34:37;21.98;;;10.57;;
57101;SDS011;42982;54.558;18.508;2022-10-16T03:35:40;23.30;;;11.13;;
57101;SDS011;42982;54.558;18.508;2022-10-16T03:36:46;20.55;;;10.63;;
57101;SDS011;42982;54.558;18.508;2022-10-16T03:37:52;22.40;;;10.30;;
57101;SDS011;42982;54.558;18.508;2022-10-16T03:38:57;19.88;;;10.02;;
57101;SDS011;42982;54.558;18.508;2022-10-16T03:39:59;24.50;;;10.90;;
57101;SDS011;42982;54.558;18.508;2022-10-16T03:41:07;18.90;;;9.70;;
57101;SDS011;42982;54.558;18.508;2022-10-16T03:42:16;20.52;;;10.40;;
57101;SDS011;42982;54.558;18.508;2022-10-16T03:43:22;20.15;;;10.82;;
57101;SDS011;42982;54.558;18.508;2022-10-16T03:44:25;22.77;;;10.18;;
57101;SDS011;42982;54.558;18.508;2022-10-16T03:45:30;18.27;;;9.88;;
57101;SDS011;42982;54.558;18.508;2022-10-16T03:46:36;22.02;;;10.65;;
57101;SDS011;42982;54.558;18.508;2022-10-16T03:47:43;23.88;;;9.95;;
57101;SDS011;42982;54.558;18.508;2022-10-16T03:48:46;18.50;;;9.57;;
57101;SDS011;42982;54.558;18.508;2022-10-16T03:49:52;18.83;;;9.68;;
57101;SDS011;42982;54.558;18.508;2022-10-16T03:50:55;19.27;;;9.57;;
57101;SDS011;42982;54.558;18.508;2022-10-16T03:51:58;20.50;;;10.15;;
57101;SDS011;42982;54.558;18.508;2022-10-16T03:53:03;19.70;;;10.38;;
57101;SDS011;42982;54.558;18.508;2022-10-16T03:54:09;18.25;;;10.35;;
57101;SDS011;42982;54.558;18.508;2022-10-16T03:55:17;22.70;;;10.35;;
57101;SDS011;42982;54.558;18.508;2022-10-16T03:56:22;21.05;;;9.13;;
57101;SDS011;42982;54.558;18.508;2022-10-16T03:57:27;19.48;;;9.93;;
57101;SDS011;42982;54.558;18.508;2022-10-16T03:58:35;16.00;;;9.40;;
57101;SDS011;42982;54.558;18.508;2022-10-16T03:59:40;18.38;;;9.52;;
57101;SDS011;42982;54.558;18.508;2022-10-16T04:00:45;19.02;;;9.73;;
57101;SDS011;42982;54.558;18.508;2022-10-16T04:01:51;18.52;;;9.48;;
57101;SDS011;42982;54.558;18.508;2022-10-16T04:02:53;20.20;;;10.63;;
57101;SDS011;42982;54.558;18.508;2022-10-16T04:03:56;18.23;;;9.68;;
57101;SDS011;42982;54.558;18.508;2022-10-16T04:05:06;21.55;;;10.15;;
57101;SDS011;42982;54.558;18.508;2022-10-16T04:06:09;18.27;;;9.63;;
57101;SDS011;42982;54.558;18.508;2022-10-16T04:07:16;18.33;;;8.95;;
57101;SDS011;42982;54.558;18.508;2022-10-16T04:08:22;20.13;;;9.82;;
57101;SDS011;42982;54.558;18.508;2022-10-16T04:09:28;16.58;;;9.55;;
57101;SDS011;42982;54.558;18.508;2022-10-16T04:10:33;21.60;;;10.43;;
57101;SDS011;42982;54.558;18.508;2022-10-16T04:11:38;17.88;;;9.45;;
57101;SDS011;42982;54.558;18.508;2022-10-16T04:12:43;18.08;;;9.50;;
57101;SDS011;42982;54.558;18.508;2022-10-16T04:13:46;18.38;;;8.93;;
57101;SDS011;42982;54.558;18.508;2022-10-16T04:14:52;18.42;;;9.57;;
57101;SDS011;42982;54.558;18.508;2022-10-16T04:15:55;16.88;;;8.98;;
57101;SDS011;42982;54.558;18.508;2022-10-16T04:16:59;17.92;;;9.88;;
57101;SDS011;42982;54.558;18.508;2022-10-16T04:18:01;19.13;;;9.35;;
57101;SDS011;42982;54.558;18.508;2022-10-16T04:19:12;19.10;;;9.38;;
57101;SDS011;42982;54.558;18.508;2022-10-16T04:20:14;16.15;;;9.32;;
57101;SDS011;42982;54.558;18.508;2022-10-16T04:21:17;17.92;;;9.85;;
57101;SDS011;42982;54.558;18.508;2022-10-16T04:22:21;19.63;;;10.32;;
57101;SDS011;42982;54.558;18.508;2022-10-16T04:23:24;19.77;;;10.70;;
57101;SDS011;42982;54.558;18.508;2022-10-16T04:24:32;20.63;;;10.30;;
57101;SDS011;42982;54.558;18.508;2022-10-16T04:25:38;18.95;;;9.52;;
57101;SDS011;42982;54.558;18.508;2022-10-16T04:26:44;20.60;;;9.90;;
57101;SDS011;42982;54.558;18.508;2022-10-16T04:27:52;18.63;;;9.75;;
57101;SDS011;42982;54.558;18.508;2022-10-16T04:28:55;19.48;;;9.23;;
57101;SDS011;42982;54.558;18.508;2022-10-16T04:30:00;19.27;;;9.50;;
57101;SDS011;42982;54.558;18.508;2022-10-16T04:31:06;16.55;;;8.93;;
57101;SDS011;42982;54.558;18.508;2022-10-16T04:32:08;19.73;;;9.15;;
57101;SDS011;42982;54.558;18.508;2022-10-16T04:33:14;17.02;;;8.77;;
57101;SDS011;42982;54.558;18.508;2022-10-16T04:34:19;18.38;;;9.23;;
57101;SDS011;42982;54.558;18.508;2022-10-16T04:35:22;20.60;;;10.00;;
57101;SDS011;42982;54.558;18.508;2022-10-16T04:36:31;18.08;;;9.60;;
57101;SDS011;42982;54.558;18.508;2022-10-16T04:37:34;20.98;;;10.25;;
57101;SDS011;42982;54.558;18.508;2022-10-16T04:38:37;19.77;;;10.05;;
57101;SDS011;42982;54.558;18.508;2022-10-16T04:39:40;17.27;;;9.45;;
57101;SDS011;42982;54.558;18.508;2022-10-16T04:40:49;19.05;;;9.57;;
57101;SDS011;42982;54.558;18.508;2022-10-16T04:41:57;22.58;;;9.57;;
57101;SDS011;42982;54.558;18.508;2022-10-16T04:43:01;21.77;;;9.63;;
57101;SDS011;42982;54.558;18.508;2022-10-16T04:44:09;18.50;;;9.07;;
57101;SDS011;42982;54.558;18.508;2022-10-16T04:45:12;25.75;;;10.27;;
57101;SDS011;42982;54.558;18.508;2022-10-16T04:46:20;18.23;;;9.35;;
57101;SDS011;42982;54.558;18.508;2022-10-16T04:47:23;19.48;;;10.07;;
57101;SDS011;42982;54.558;18.508;2022-10-16T04:48:29;26.30;;;11.05;;
57101;SDS011;42982;54.558;18.508;2022-10-16T04:49:37;17.88;;;9.73;;
57101;SDS011;42982;54.558;18.508;2022-10-16T04:50:40;18.10;;;9.75;;
57101;SDS011;42982;54.558;18.508;2022-10-16T04:51:43;18.70;;;9.63;;
57101;SDS011;42982;54.558;18.508;2022-10-16T04:52:47;20.30;;;9.60;;
57101;SDS011;42982;54.558;18.508;2022-10-16T04:53:54;19.45;;;9.98;;
57101;SDS011;42982;54.558;18.508;2022-10-16T04:54:59;21.30;;;10.25;;
57101;SDS011;42982;54.558;18.508;2022-10-16T04:56:06;18.80;;;10.50;;
57101;SDS011;42982;54.558;18.508;2022-10-16T04:57:08;20.27;;;9.88;;
57101;SDS011;42982;54.558;18.508;2022-10-16T04:58:15;18.40;;;9.75;;
57101;SDS011;42982;54.558;18.508;2022-10-16T04:59:21;18.63;;;9.75;;
57101;SDS011;42982;54.558;18.508;2022-10-16T05:00:26;20.98;;;10.27;;
57101;SDS011;42982;54.558;18.508;2022-10-16T05:01:31;18.80;;;10.45;;
57101;SDS011;42982;54.558;18.508;2022-10-16T05:02:36;18.90;;;9.95;;
57101;SDS011;42982;54.558;18.508;2022-10-16T05:03:45;17.33;;;9.55;;
57101;SDS011;42982;54.558;18.508;2022-10-16T05:04:50;19.70;;;9.68;;
57101;SDS011;42982;54.558;18.508;2022-10-16T05:05:56;19.60;;;10.25;;
57101;SDS011;42982;54.558;18.508;2022-10-16T05:07:00;19.98;;;10.57;;
57101;SDS011;42982;54.558;18.508;2022-10-16T05:08:05;18.52;;;10.52;;
57101;SDS011;42982;54.558;18.508;2022-10-16T05:09:10;18.42;;;9.90;;
57101;SDS011;42982;54.558;18.508;2022-10-16T05:10:13;20.40;;;10.15;;
57101;SDS011;42982;54.558;18.508;2022-10-16T05:11:18;17.02;;;9.80;;
57101;SDS011;42982;54.558;18.508;2022-10-16T05:12:21;21.08;;;10.02;;
57101;SDS011;42982;54.558;18.508;2022-10-16T05:13:29;21.25;;;10.18;;
57101;SDS011;42982;54.558;18.508;2022-10-16T05:14:34;19.35;;;10.13;;
57101;SDS011;42982;54.558;18.508;2022-10-16T05:15:41;22.23;;;10.65;;
57101;SDS011;42982;54.558;18.508;2022-10-16T05:16:46;22.35;;;10.13;;
57101;SDS011;42982;54.558;18.508;2022-10-16T05:17:55;20.35;;;10.18;;
57101;SDS011;42982;54.558;18.508;2022-10-16T05:19:00;24.08;;;10.20;;
57101;SDS011;42982;54.558;18.508;2022-10-16T05:20:05;20.42;;;10.57;;
57101;SDS011;42982;54.558;18.508;2022-10-16T05:21:15;22.88;;;10.38;;
57101;SDS011;42982;54.558;18.508;2022-10-16T05:22:21;21.80;;;10.60;;
57101;SDS011;42982;54.558;18.508;2022-10-16T05:23:24;19.58;;;10.25;;
57101;SDS011;42982;54.558;18.508;2022-10-16T05:24:30;19.52;;;10.25;;
57101;SDS011;42982;54.558;18.508;2022-10-16T05:25:37;23.02;;;10.80;;
57101;SDS011;42982;54.558;18.508;2022-10-16T05:26:39;19.58;;;10.13;;
57101;SDS011;42982;54.558;18.508;2022-10-16T05:27:42;20.23;;;10.32;;
57101;SDS011;42982;54.558;18.508;2022-10-16T05:28:49;23.05;;;11.07;;
57101;SDS011;42982;54.558;18.508;2022-10-16T05:29:51;20.75;;;11.25;;
57101;SDS011;42982;54.558;18.508;2022-10-16T05:30:57;19.20;;;10.88;;
57101;SDS011;42982;54.558;18.508;2022-10-16T05:32:00;21.38;;;10.57;;
57101;SDS011;42982;54.558;18.508;2022-10-16T05:33:08;20.15;;;10.75;;
57101;SDS011;42982;54.558;18.508;2022-10-16T05:34:10;23.02;;;11.13;;
57101;SDS011;42982;54.558;18.508;2022-10-16T05:35:17;21.25;;;11.18;;
57101;SDS011;42982;54.558;18.508;2022-10-16T05:36:20;22.05;;;10.35;;
57101;SDS011;42982;54.558;18.508;2022-10-16T05:37:23;21.27;;;10.63;;
57101;SDS011;42982;54.558;18.508;2022-10-16T05:38:28;24.45;;;12.10;;
57101;SDS011;42982;54.558;18.508;2022-10-16T05:39:30;21.85;;;10.55;;
57101;SDS011;42982;54.558;18.508;2022-10-16T05:40:38;21.35;;;10.85;;
57101;SDS011;42982;54.558;18.508;2022-10-16T05:41:46;23.35;;;11.45;;
57101;SDS011;42982;54.558;18.508;2022-10-16T05:42:55;21.77;;;10.77;;
57101;SDS011;42982;54.558;18.508;2022-10-16T05:44:03;22.58;;;11.10;;
57101;SDS011;42982;54.558;18.508;2022-10-16T05:45:10;22.77;;;11.30;;
57101;SDS011;42982;54.558;18.508;2022-10-16T05:46:13;21.35;;;11.55;;
57101;SDS011;42982;54.558;18.508;2022-10-16T05:47:18;21.80;;;11.05;;
57101;SDS011;42982;54.558;18.508;2022-10-16T05:48:24;25.40;;;12.20;;
57101;SDS011;42982;54.558;18.508;2022-10-16T05:49:29;19.98;;;11.20;;
57101;SDS011;42982;54.558;18.508;2022-10-16T05:50:32;23.92;;;11.77;;
57101;SDS011;42982;54.558;18.508;2022-10-16T05:51:38;21.45;;;11.15;;
57101;SDS011;42982;54.558;18.508;2022-10-16T05:52:42;23.10;;;11.98;;
57101;SDS011;42982;54.558;18.508;2022-10-16T05:53:43;21.67;;;11.30;;
57101;SDS011;42982;54.558;18.508;2022-10-16T05:54:50;19.40;;;10.07;;
57101;SDS011;42982;54.558;18.508;2022-10-16T05:55:56;20.30;;;11.68;;
57101;SDS011;42982;54.558;18.508;2022-10-16T05:57:00;23.52;;;11.23;;
57101;SDS011;42982;54.558;18.508;2022-10-16T05:58:06;22.20;;;11.35;;
57101;SDS011;42982;54.558;18.508;2022-10-16T05:59:09;24.05;;;12.00;;
57101;SDS011;42982;54.558;18.508;2022-10-16T06:00:17;21.33;;;11.25;;
57101;SDS011;42982;54.558;18.508;2022-10-16T06:01:20;22.88;;;11.05;;
57101;SDS011;42982;54.558;18.508;2022-10-16T06:02:25;21.33;;;10.80;;
57101;SDS011;42982;54.558;18.508;2022-10-16T06:03:28;21.95;;;12.07;;
57101;SDS011;42982;54.558;18.508;2022-10-16T06:04:30;22.60;;;12.30;;
57101;SDS011;42982;54.558;18.508;2022-10-16T06:05:35;23.20;;;11.85;;
57101;SDS011;42982;54.558;18.508;2022-10-16T06:06:43;23.63;;;11.65;;
57101;SDS011;42982;54.558;18.508;2022-10-16T06:07:46;24.92;;;12.60;;
57101;SDS011;42982;54.558;18.508;2022-10-16T06:08:49;24.17;;;12.10;;
57101;SDS011;42982;54.558;18.508;2022-10-16T06:09:55;23.38;;;11.55;;
57101;SDS011;42982;54.558;18.508;2022-10-16T06:11:01;25.60;;;11.93;;
57101;SDS011;42982;54.558;18.508;2022-10-16T06:12:03;24.25;;;12.10;;
57101;SDS011;42982;54.558;18.508;2022-10-16T06:13:08;21.38;;;11.05;;
57101;SDS011;42982;54.558;18.508;2022-10-16T06:14:13;21.95;;;13.00;;
57101;SDS011;42982;54.558;18.508;2022-10-16T06:15:18;24.00;;;11.90;;
57101;SDS011;42982;54.558;18.508;2022-10-16T06:16:25;21.52;;;11.65;;
57101;SDS011;42982;54.558;18.508;2022-10-16T06:17:31;22.42;;;11.70;;
57101;SDS011;42982;54.558;18.508;2022-10-16T06:18:36;22.90;;;11.90;;
57101;SDS011;42982;54.558;18.508;2022-10-16T06:19:41;21.95;;;11.75;;
57101;SDS011;42982;54.558;18.508;2022-10-16T06:20:43;24.85;;;12.38;;
57101;SDS011;42982;54.558;18.508;2022-10-16T06:21:48;24.95;;;12.38;;
57101;SDS011;42982;54.558;18.508;2022-10-16T06:22:52;20.80;;;11.48;;
57101;SDS011;42982;54.558;18.508;2022-10-16T06:23:55;24.30;;;12.20;;
57101;SDS011;42982;54.558;18.508;2022-10-16T06:24:58;24.17;;;13.23;;
57101;SDS011;42982;54.558;18.508;2022-10-16T06:26:04;24.42;;;13.20;;
57101;SDS011;42982;54.558;18.508;2022-10-16T06:27:10;21.50;;;11.18;;
57101;SDS011;42982;54.558;18.508;2022-10-16T06:28:19;25.85;;;11.88;;
57101;SDS011;42982;54.558;18.508;2022-10-16T06:29:22;21.55;;;11.40;;
57101;SDS011;42982;54.558;18.508;2022-10-16T06:30:27;21.48;;;11.75;;
57101;SDS011;42982;54.558;18.508;2022-10-16T06:31:42;20.42;;;11.15;;
57101;SDS011;42982;54.558;18.508;2022-10-16T06:32:44;22.25;;;11.57;;
57101;SDS011;42982;54.558;18.508;2022-10-16T06:33:54;20.58;;;11.00;;
57101;SDS011;42982;54.558;18.508;2022-10-16T06:34:57;19.63;;;10.80;;
57101;SDS011;42982;54.558;18.508;2022-10-16T06:36:04;20.85;;;11.07;;
57101;SDS011;42982;54.558;18.508;2022-10-16T06:37:12;21.83;;;11.60;;
57101;SDS011;42982;54.558;18.508;2022-10-16T06:38:16;20.23;;;11.35;;
57101;SDS011;42982;54.558;18.508;2022-10-16T06:39:19;20.98;;;11.38;;
57101;SDS011;42982;54.558;18.508;2022-10-16T06:40:22;21.40;;;11.55;;
57101;SDS011;42982;54.558;18.508;2022-10-16T06:41:26;20.77;;;11.50;;
57101;SDS011;42982;54.558;18.508;2022-10-16T06:42:33;21.05;;;11.02;;